Time;durP1;ratioP1;P1;durP2;ratioP2;P2;SDS_P1;SDS_P2;PMS_P1;PMS_P2;Temp;Humidity;BMP_temperature;BMP_pressure;BME280_temperature;BME280_humidity;BME280_pressure;Samples;Min_cycle;Max_cycle;Signal;HPM_P1;HPM_P2
2024/03/13 00:01:48;;;;;;;4.35;1.23;;;17.90;61.40;;;;;;6041962;23;20164;-85
2024/03/13 00:04:21;;;;;;;3.13;1.35;;;17.90;60.80;;;;;;6087640;23;20189;-85
2024/03/13 00:06:47;;;;;;;3.08;1.00;;;17.80;60.80;;;;;;6138403;23;20161;-85
2024/03/13 00:09:16;;;;;;;2.63;1.00;;;17.90;60.90;;;;;;6139556;23;20160;-85
2024/03/13 00:11:44;;;;;;;2.97;0.90;;;17.90;60.70;;;;;;6143259;23;20163;-85
2024/03/13 00:14:17;;;;;;;3.03;1.20;;;17.80;60.80;;;;;;6142970;23;20155;-85
2024/03/13 00:16:48;;;;;;;4.72;1.30;;;17.90;60.60;;;;;;6131358;23;20154;-85
2024/03/13 00:19:14;;;;;;;2.88;1.20;;;17.80;60.80;;;;;;6189579;23;20160;-86
2024/03/13 00:21:43;;;;;;;1.67;1.23;;;17.90;60.50;;;;;;6212496;23;20639;-85
2024/03/13 00:24:09;;;;;;;3.33;1.00;;;17.80;60.60;;;;;;6237639;23;20196;-86
2024/03/13 00:26:38;;;;;;;1.85;1.10;;;17.90;60.90;;;;;;6237950;23;20212;-85
2024/03/13 00:29:10;;;;;;;1.00;0.90;;;17.80;60.90;;;;;;6212444;23;20145;-85
2024/03/13 00:31:38;;;;;;;2.58;1.15;;;17.80;60.90;;;;;;6184462;23;20160;-85
2024/03/13 00:34:12;;;;;;;2.13;1.17;;;17.80;60.90;;;;;;6182341;23;20146;-86
2024/03/13 00:36:38;;;;;;;2.63;1.10;;;17.80;61.00;;;;;;6207409;23;20212;-85
2024/03/13 00:39:05;;;;;;;4.38;1.15;;;17.80;61.00;;;;;;6183778;23;20150;-85
2024/03/13 00:41:39;;;;;;;1.92;1.08;;;17.80;60.90;;;;;;6181706;23;20212;-85
2024/03/13 00:44:09;;;;;;;1.95;0.98;;;17.70;61.00;;;;;;6179058;23;20602;-85
2024/03/13 00:46:40;;;;;;;2.28;1.40;;;17.80;60.80;;;;;;6177788;23;20186;-86
2024/03/13 00:49:11;;;;;;;2.13;1.05;;;17.80;60.70;;;;;;6178146;23;20150;-85
2024/03/13 00:51:39;;;;;;;4.07;1.40;;;17.80;61.60;;;;;;6202998;23;20162;-86
2024/03/13 00:54:08;;;;;;;2.65;1.15;;;17.80;60.80;;;;;;6178341;23;20234;-85
2024/03/13 00:56:35;;;;;;;2.25;1.30;;;17.70;61.00;;;;;;6202795;23;20151;-85
2024/03/13 00:59:05;;;;;;;1.30;1.08;;;17.70;61.90;;;;;;6178514;23;20147;-86
2024/03/13 01:01:48;;;;;;;2.67;1.00;;;17.70;61.00;;;;;;6177723;23;20161;-86
2024/03/13 01:04:16;;;;;;;2.25;1.13;;;17.70;60.90;;;;;;6118464;23;20161;-85
2024/03/13 01:06:48;;;;;;;5.25;1.30;;;17.70;61.00;;;;;;6119018;23;20235;-86
2024/03/13 01:09:23;;;;;;;1.65;1.00;;;17.80;60.90;;;;;;6084438;23;20150;-85
2024/03/13 01:11:56;;;;;;;4.95;1.23;;;17.80;60.90;;;;;;6085255;23;20612;-85
2024/03/13 01:14:27;;;;;;;3.67;1.38;;;17.80;60.70;;;;;;6085847;23;20184;-85
2024/03/13 01:16:53;;;;;;;3.63;1.10;;;17.80;60.70;;;;;;6083574;23;20255;-85
2024/03/13 01:19:20;;;;;;;3.50;1.70;;;17.80;60.80;;;;;;6084325;23;20149;-85
2024/03/13 01:24:32;;;;;;;5.05;1.08;;;17.70;60.80;;;;;;6075299;23;20162;-86
2024/03/13 01:27:00;;;;;;;3.00;1.27;;;17.70;60.80;;;;;;6055428;23;20229;-85
2024/03/13 01:29:46;;;;;;;4.65;1.30;;;17.70;60.70;;;;;;6026907;23;20167;-85
2024/03/13 01:32:14;;;;;;;2.15;1.20;;;17.70;60.60;;;;;;6003267;23;20218;-86
2024/03/13 01:34:42;;;;;;;3.13;1.00;;;17.70;60.70;;;;;;6026678;23;20166;-85
2024/03/13 01:39:52;;;;;;;5.32;1.42;;;17.80;60.40;;;;;;5990291;24;20156;-86
2024/03/13 01:56:23;;;;;;;2.15;1.38;;;17.70;60.60;;;;;;6020142;23;20160;-85
2024/03/13 01:59:02;;;;;;;1.77;1.02;;;17.70;60.70;;;;;;6021537;23;20166;-85
2024/03/13 02:04:17;;;;;;;1.80;1.25;;;17.70;60.40;;;;;;6019688;23;20163;-85
2024/03/13 02:06:49;;;;;;;1.67;1.00;;;17.70;60.50;;;;;;6021441;23;20193;-85
2024/03/13 02:09:25;;;;;;;5.13;1.25;;;17.70;60.70;;;;;;6044828;23;20156;-86
2024/03/13 02:11:54;;;;;;;1.70;0.90;;;17.70;60.70;;;;;;6044298;23;20163;-85
2024/03/13 02:14:28;;;;;;;1.95;1.20;;;17.70;60.50;;;;;;6110766;23;20169;-85
2024/03/13 02:17:08;;;;;;;2.75;1.10;;;17.70;60.60;;;;;;6030814;23;20169;-85
2024/03/13 02:19:36;;;;;;;4.45;1.13;;;17.60;60.70;;;;;;6031785;23;20162;-86
2024/03/13 02:22:13;;;;;;;1.55;1.00;;;17.70;60.70;;;;;;6025633;23;20202;-86
2024/03/13 02:24:43;;;;;;;1.65;1.10;;;17.70;60.50;;;;;;5997919;23;20159;-84
2024/03/13 02:27:11;;;;;;;1.70;1.13;;;17.70;60.70;;;;;;5975147;24;20166;-86
2024/03/13 02:29:42;;;;;;;2.10;1.13;;;17.70;60.70;;;;;;5976154;24;20215;-85
2024/03/13 02:32:11;;;;;;;1.45;0.90;;;17.60;60.80;;;;;;6008303;23;20238;-85
2024/03/13 02:34:51;;;;;;;1.45;1.05;;;17.70;60.80;;;;;;6026427;23;20154;-85
2024/03/13 02:37:17;;;;;;;1.52;1.00;;;17.70;60.30;;;;;;6026534;23;20251;-85
2024/03/13 02:39:44;;;;;;;3.90;1.30;;;17.70;60.70;;;;;;6025827;23;20150;-85
2024/03/13 02:42:10;;;;;;;2.13;1.15;;;17.70;60.40;;;;;;6003369;23;20154;-86
2024/03/13 02:44:43;;;;;;;2.30;1.17;;;17.70;60.60;;;;;;5991304;24;20616;-85
2024/03/13 02:47:09;;;;;;;2.28;1.20;;;17.70;60.80;;;;;;5946706;24;20159;-86
2024/03/13 02:49:43;;;;;;;3.40;1.33;;;17.70;60.30;;;;;;5987134;24;20188;-85
2024/03/13 02:52:12;;;;;;;2.65;1.30;;;17.60;60.60;;;;;;5950237;24;20626;-85
2024/03/13 02:54:40;;;;;;;3.13;1.30;;;17.70;61.50;;;;;;6012117;23;20150;-85
2024/03/13 02:57:07;;;;;;;1.55;1.20;;;17.70;60.80;;;;;;6031448;23;20146;-85
2024/03/13 02:59:35;;;;;;;2.53;1.30;;;17.70;60.70;;;;;;6055171;23;20242;-85
2024/03/13 03:02:04;;;;;;;3.25;1.00;;;17.60;60.50;;;;;;6070549;23;20148;-86
2024/03/13 03:04:31;;;;;;;2.25;1.20;;;17.70;60.70;;;;;;6094664;23;20520;-86
2024/03/13 03:07:13;;;;;;;3.47;1.40;;;17.70;60.50;;;;;;6071700;23;20227;-85
2024/03/13 03:09:44;;;;;;;3.42;1.20;;;17.70;60.60;;;;;;6118828;23;20175;-85
2024/03/13 03:12:17;;;;;;;1.60;1.13;;;17.60;60.70;;;;;;6118764;23;20144;-86
2024/03/13 03:14:55;;;;;;;2.22;1.17;;;17.60;60.70;;;;;;6119043;23;20152;-85
2024/03/13 03:17:26;;;;;;;2.20;1.17;;;17.60;60.70;;;;;;6105393;23;20143;-85
2024/03/13 03:20:08;;;;;;;2.25;1.45;;;17.60;60.70;;;;;;6152349;23;20214;-85
2024/03/13 03:22:35;;;;;;;2.63;1.10;;;17.60;60.50;;;;;;6176001;23;20213;-86
2024/03/13 03:25:56;;;;;;;2.58;1.45;;;17.60;60.50;;;;;;6151680;23;20182;-85
2024/03/13 03:28:29;;;;;;;1.92;1.20;;;17.60;60.60;;;;;;6201097;23;20162;-86
2024/03/13 03:31:01;;;;;;;2.50;1.10;;;17.50;60.50;;;;;;6176439;23;20164;-85
2024/03/13 03:33:35;;;;;;;2.70;1.15;;;17.60;60.60;;;;;;6149604;23;20151;-85
2024/03/13 03:36:02;;;;;;;2.47;1.20;;;17.60;60.80;;;;;;6171400;23;20656;-86
2024/03/13 03:38:29;;;;;;;2.55;1.48;;;17.60;60.80;;;;;;6147059;23;20152;-86
2024/03/13 03:40:58;;;;;;;1.80;1.08;;;17.60;60.50;;;;;;6171347;23;20147;-87
2024/03/13 03:43:32;;;;;;;2.28;1.20;;;17.60;60.60;;;;;;6097989;23;20159;-85
2024/03/13 03:45:59;;;;;;;1.77;1.10;;;17.60;60.40;;;;;;6140772;23;20179;-85
2024/03/13 03:48:26;;;;;;;2.83;1.42;;;17.60;60.40;;;;;;6117521;23;20163;-85
2024/03/13 03:50:58;;;;;;;2.15;1.08;;;17.60;60.60;;;;;;6141649;23;20152;-86
2024/03/13 03:53:44;;;;;;;3.38;1.48;;;17.60;60.70;;;;;;6115593;23;20157;-85
2024/03/13 03:56:14;;;;;;;2.42;1.20;;;17.60;60.70;;;;;;6131263;23;20157;-85
2024/03/13 03:58:50;;;;;;;2.13;1.27;;;17.60;60.50;;;;;;6109207;23;20176;-85
2024/03/13 04:01:20;;;;;;;1.63;1.10;;;17.60;60.60;;;;;;6132081;23;20167;-85
2024/03/13 04:03:48;;;;;;;1.30;0.95;;;17.60;60.40;;;;;;6107322;23;20173;-86
2024/03/13 04:06:17;;;;;;;3.03;1.38;;;17.60;60.70;;;;;;6044542;23;20222;-85
2024/03/13 04:08:45;;;;;;;1.85;1.20;;;17.60;60.30;;;;;;6021717;23;20150;-85
2024/03/13 04:11:14;;;;;;;2.42;1.10;;;17.60;60.80;;;;;;6031740;23;20158;-85
2024/03/13 04:13:44;;;;;;;1.55;1.13;;;17.60;60.60;;;;;;6030888;23;20485;-85
2024/03/13 04:16:16;;;;;;;2.72;1.10;;;17.50;60.80;;;;;;6031475;23;20281;-85
2024/03/13 04:18:55;;;;;;;3.30;1.27;;;17.50;61.00;;;;;;6030894;23;20154;-85
2024/03/13 04:21:21;;;;;;;2.45;1.33;;;17.50;60.90;;;;;;6006958;23;20245;-85
2024/03/13 04:23:55;;;;;;;2.50;1.10;;;17.50;60.50;;;;;;6064808;23;20157;-86
2024/03/13 04:26:30;;;;;;;2.25;1.13;;;17.50;60.70;;;;;;6036054;23;20196;-85
2024/03/13 04:29:05;;;;;;;2.35;1.17;;;17.60;60.60;;;;;;6060152;23;20160;-85
2024/03/13 04:31:39;;;;;;;2.55;1.08;;;17.50;60.80;;;;;;6011964;23;20180;-85
2024/03/13 04:34:12;;;;;;;1.73;1.40;;;17.50;60.80;;;;;;6013288;23;20152;-85
2024/03/13 04:36:39;;;;;;;2.78;1.30;;;17.50;60.50;;;;;;6027079;23;20160;-85
2024/03/13 04:39:12;;;;;;;2.10;1.10;;;17.60;60.70;;;;;;6118612;23;20159;-85
2024/03/13 04:41:39;;;;;;;3.50;1.08;;;17.50;60.80;;;;;;6120544;23;20144;-86
2024/03/13 04:44:19;;;;;;;3.67;1.05;;;17.50;60.60;;;;;;6120768;23;20231;-85
2024/03/13 04:46:48;;;;;;;2.03;1.23;;;17.50;60.50;;;;;;6097032;23;20192;-86
2024/03/13 04:49:14;;;;;;;3.85;1.00;;;17.50;60.80;;;;;;6120430;23;20152;-85
2024/03/13 04:51:42;;;;;;;2.17;1.27;;;17.60;60.80;;;;;;6121441;23;20170;-86
2024/03/13 04:54:08;;;;;;;3.53;1.42;;;17.50;60.60;;;;;;6159109;23;20668;-85
2024/03/13 04:56:37;;;;;;;3.45;1.30;;;17.50;60.90;;;;;;6131822;23;20155;-86
2024/03/13 04:59:07;;;;;;;2.67;1.40;;;17.50;60.80;;;;;;6152263;23;20148;-86
2024/03/13 05:01:44;;;;;;;2.05;1.45;;;17.50;60.90;;;;;;6102516;23;20151;-86
2024/03/13 05:04:45;;;;;;;3.15;1.30;;;17.50;60.80;;;;;;6100269;23;20147;-85
2024/03/13 05:07:12;;;;;;;2.50;1.10;;;17.50;60.50;;;;;;6060554;23;20181;-86
2024/03/13 05:09:41;;;;;;;2.03;1.38;;;17.50;60.40;;;;;;6061903;23;20632;-86
2024/03/13 05:12:10;;;;;;;2.75;1.42;;;17.50;60.60;;;;;;6060754;23;20221;-85
2024/03/13 05:14:45;;;;;;;2.17;1.25;;;17.40;60.50;;;;;;6037496;23;20169;-85
2024/03/13 05:17:22;;;;;;;2.75;1.38;;;17.50;60.70;;;;;;6036448;23;20172;-86
2024/03/13 05:19:58;;;;;;;3.20;1.58;;;17.50;60.60;;;;;;6085002;23;20164;-86
2024/03/13 05:22:36;;;;;;;1.50;1.30;;;17.50;61.00;;;;;;6061072;23;20196;-86
2024/03/13 05:25:14;;;;;;;2.70;1.35;;;17.40;61.00;;;;;;6070595;23;20215;-85
2024/03/13 05:27:46;;;;;;;2.58;1.50;;;17.40;60.80;;;;;;6032848;23;20150;-85
2024/03/13 05:30:16;;;;;;;1.77;1.38;;;17.50;60.70;;;;;;6032342;23;20154;-86
2024/03/13 05:32:44;;;;;;;2.45;1.50;;;17.50;60.70;;;;;;6032222;23;20197;-86
2024/03/13 05:35:13;;;;;;;2.45;1.50;;;17.50;60.80;;;;;;6055856;23;20158;-86
2024/03/13 05:37:40;;;;;;;2.85;1.40;;;17.50;60.50;;;;;;6056531;23;20221;-86
2024/03/13 05:40:16;;;;;;;1.75;1.20;;;17.50;60.60;;;;;;6084563;23;20153;-86
2024/03/13 05:43:01;;;;;;;1.40;1.10;;;17.50;60.70;;;;;;5970241;23;20161;-85
2024/03/13 05:45:34;;;;;;;2.00;1.38;;;17.40;60.90;;;;;;6056371;23;20189;-85
2024/03/13 05:48:14;;;;;;;1.92;1.20;;;17.40;60.90;;;;;;6008585;23;20182;-85
2024/03/13 05:50:43;;;;;;;2.92;1.48;;;17.50;60.70;;;;;;6008416;23;20158;-85
2024/03/13 05:53:20;;;;;;;3.17;1.38;;;17.40;60.80;;;;;;6055026;23;20854;-86
2024/03/13 05:55:52;;;;;;;2.60;1.38;;;17.50;60.40;;;;;;6065771;23;20225;-85
2024/03/13 05:58:20;;;;;;;1.65;1.40;;;17.50;60.70;;;;;;6043608;23;20156;-87
2024/03/13 06:00:46;;;;;;;2.63;1.30;;;17.40;60.90;;;;;;6037820;23;20153;-86
2024/03/13 06:03:12;;;;;;;1.70;1.10;;;17.50;60.80;;;;;;6062761;23;20161;-86
2024/03/13 06:05:45;;;;;;;2.97;1.33;;;17.40;60.70;;;;;;6078290;23;20449;-85
2024/03/13 06:08:20;;;;;;;3.28;1.40;;;17.50;60.80;;;;;;6143656;23;20168;-85
2024/03/13 06:10:48;;;;;;;2.30;1.30;;;17.40;60.60;;;;;;6090832;23;20158;-86
2024/03/13 06:13:15;;;;;;;1.73;1.10;;;17.40;60.40;;;;;;6091621;23;20160;-86
2024/03/13 06:15:47;;;;;;;3.03;1.20;;;17.40;60.50;;;;;;6091407;23;20156;-86
2024/03/13 06:18:15;;;;;;;1.63;1.30;;;17.40;60.50;;;;;;6092380;23;20215;-86
2024/03/13 06:20:40;;;;;;;2.92;1.50;;;17.40;61.40;;;;;;6123310;23;20155;-86
2024/03/13 06:23:16;;;;;;;2.10;1.58;;;17.40;60.50;;;;;;6123438;23;20194;-86
2024/03/13 06:25:48;;;;;;;1.77;1.20;;;17.40;60.70;;;;;;6146182;23;20187;-86
2024/03/13 06:31:05;;;;;;;2.38;1.40;;;17.40;60.60;;;;;;6129816;23;20151;-87
2024/03/13 06:33:34;;;;;;;2.05;1.40;;;17.40;60.60;;;;;;6147842;23;20139;-85
2024/03/13 06:36:02;;;;;;;2.60;1.15;;;17.40;60.40;;;;;;6084000;23;20173;-86
2024/03/13 06:38:29;;;;;;;3.00;1.40;;;17.50;60.50;;;;;;6060037;23;20172;-86
2024/03/13 06:41:00;;;;;;;2.85;1.42;;;17.40;60.60;;;;;;6064891;23;20172;-87
2024/03/13 06:43:40;;;;;;;4.78;1.33;;;17.40;60.70;;;;;;6088498;23;20579;-86
2024/03/13 06:46:09;;;;;;;2.00;1.40;;;17.50;60.60;;;;;;6088697;23;20244;-86
2024/03/13 06:48:44;;;;;;;2.40;1.48;;;17.50;60.70;;;;;;6088666;23;20207;-86
2024/03/13 06:51:16;;;;;;;1.98;1.23;;;17.40;60.90;;;;;;6114470;23;20140;-85
2024/03/13 06:53:55;;;;;;;2.00;1.23;;;17.40;60.30;;;;;;6068019;23;20149;-85
2024/03/13 06:56:31;;;;;;;2.58;1.60;;;17.50;60.40;;;;;;6005953;23;20163;-84
2024/03/13 06:59:02;;;;;;;1.65;1.48;;;17.40;60.50;;;;;;5983781;23;20241;-85
2024/03/13 07:01:39;;;;;;;1.65;1.20;;;17.40;60.70;;;;;;6005539;23;20185;-86
2024/03/13 07:04:09;;;;;;;2.63;1.42;;;17.40;60.60;;;;;;5996131;24;20159;-85
2024/03/13 07:06:37;;;;;;;2.40;1.48;;;17.40;60.90;;;;;;5968963;23;20319;-86
2024/03/13 07:09:17;;;;;;;2.67;1.48;;;17.40;60.90;;;;;;6031323;23;20233;-85
2024/03/13 07:12:15;;;;;;;2.38;1.40;;;17.40;60.70;;;;;;6032219;23;20157;-83
2024/03/13 07:15:10;;;;;;;2.33;1.65;;;17.40;60.00;;;;;;5947870;24;20140;-85
2024/03/13 07:18:09;;;;;;;2.28;1.60;;;17.50;59.80;;;;;;5904148;24;20258;-85
2024/03/13 07:21:31;;;;;;;;;;;;;;;;;;;;;
2024/03/13 07:23:46;;;;;;;6.22;1.70;;;17.60;59.70;;;;;;5875652;24;20185;-88
2024/03/13 07:43:20;;;;;;;2.97;1.35;;;17.50;60.00;;;;;;5983440;24;20220;-87
2024/03/13 07:45:59;;;;;;;2.08;1.40;;;17.50;60.00;;;;;;5981497;24;20301;-87
2024/03/13 08:02:09;;;;;;;3.58;1.80;;;17.60;59.80;;;;;;6163309;23;20190;-83
2024/03/13 08:04:55;;;;;;;3.38;1.40;;;17.60;59.50;;;;;;6114116;23;20147;-83
2024/03/13 08:07:32;;;;;;;2.25;1.50;;;17.70;59.50;;;;;;6104256;23;20156;-82
2024/03/13 08:10:02;;;;;;;5.95;1.70;;;17.80;59.30;;;;;;6082645;23;20152;-84
2024/03/13 08:12:30;;;;;;;7.88;1.80;;;17.70;59.00;;;;;;6060898;23;20172;-84
2024/03/13 08:15:07;;;;;;;5.07;1.70;;;17.80;59.00;;;;;;6084020;23;20211;-85
2024/03/13 08:17:37;;;;;;;8.15;1.70;;;17.80;59.30;;;;;;6061025;23;20156;-86
2024/03/13 08:20:12;;;;;;;8.77;2.08;;;17.80;58.80;;;;;;6035140;23;20223;-82
2024/03/13 08:22:39;;;;;;;9.48;2.22;;;17.80;59.50;;;;;;6144710;23;20194;-82
2024/03/13 08:25:20;;;;;;;6.68;1.65;;;17.70;59.80;;;;;;6118067;23;20187;-83
2024/03/13 08:27:46;;;;;;;7.28;1.90;;;17.70;59.90;;;;;;6120426;23;20159;-81
2024/03/13 08:30:18;;;;;;;6.38;2.13;;;17.70;59.80;;;;;;6170370;23;20152;-84
2024/03/13 08:33:09;;;;;;;;;;;;;;;;;;;;;
2024/03/13 08:35:47;;;;;;;6.30;2.40;;;17.80;59.10;;;;;;6100080;23;20156;-83
2024/03/13 08:38:16;;;;;;;8.57;1.75;;;17.80;58.60;;;;;;6114471;23;20156;-83
2024/03/13 08:40:43;;;;;;;5.00;1.73;;;17.80;59.00;;;;;;6140163;23;20143;-83
2024/03/13 08:43:18;;;;;;;5.70;1.70;;;17.80;59.20;;;;;;6115830;23;20191;-82
2024/03/13 08:45:45;;;;;;;8.25;1.80;;;17.80;59.00;;;;;;6139441;23;20203;-83
2024/03/13 08:48:17;;;;;;;3.30;1.42;;;17.80;59.10;;;;;;6140416;23;20527;-83
2024/03/13 08:50:46;;;;;;;5.07;1.58;;;17.80;59.40;;;;;;6116732;23;20235;-82
2024/03/13 08:53:15;;;;;;;4.25;2.00;;;17.80;59.50;;;;;;6140895;23;20220;-83
2024/03/13 08:55:51;;;;;;;3.78;1.70;;;17.80;59.30;;;;;;6116383;23;20169;-83
2024/03/13 08:58:18;;;;;;;4.50;1.70;;;17.70;59.30;;;;;;6117861;23;20148;-82
2024/03/13 09:00:51;;;;;;;6.38;2.10;;;17.80;59.20;;;;;;6171445;23;20155;-83
2024/03/13 09:03:25;;;;;;;6.82;1.90;;;17.80;59.40;;;;;;6200181;23;20153;-84
2024/03/13 09:05:58;;;;;;;3.63;1.75;;;17.70;59.40;;;;;;6199948;23;20159;-83
2024/03/13 09:08:33;;;;;;;3.38;1.88;;;17.80;59.30;;;;;;6200068;23;20214;-82
2024/03/13 09:11:01;;;;;;;5.53;1.92;;;17.80;59.10;;;;;;6199267;23;20131;-83
2024/03/13 09:13:30;;;;;;;4.80;1.45;;;17.90;59.20;;;;;;6149674;23;20157;-83
2024/03/13 09:16:04;;;;;;;10.38;1.95;;;17.80;59.20;;;;;;6174126;23;20644;-82
2024/03/13 09:18:35;;;;;;;6.22;1.73;;;17.80;59.40;;;;;;6173331;23;20146;-83
2024/03/13 09:21:15;;;;;;;4.28;1.83;;;17.80;59.40;;;;;;6198749;23;20130;-83
2024/03/13 09:23:42;;;;;;;6.10;1.90;;;17.80;59.40;;;;;;6172672;23;20277;-83
2024/03/13 09:26:13;;;;;;;5.13;1.73;;;17.80;58.80;;;;;;6170975;23;20501;-85
2024/03/13 09:28:48;;;;;;;3.17;1.80;;;18.00;59.10;;;;;;6197308;23;20219;-82
2024/03/13 09:31:18;;;;;;;2.95;1.65;;;18.00;58.90;;;;;;6195873;23;20131;-83
2024/03/13 09:33:59;;;;;;;5.32;1.73;;;18.00;59.40;;;;;;6170376;23;20139;-83
2024/03/13 09:36:38;;;;;;;4.28;1.92;;;17.90;59.20;;;;;;6170896;23;20208;-84
2024/03/13 09:39:06;;;;;;;4.82;1.63;;;17.90;59.60;;;;;;6149411;23;20150;-82
2024/03/13 09:41:36;;;;;;;5.68;1.85;;;17.90;59.50;;;;;;6173224;23;20143;-84
2024/03/13 09:44:04;;;;;;;5.60;1.80;;;17.90;59.40;;;;;;6164867;23;20155;-83
2024/03/13 09:46:32;;;;;;;7.38;2.05;;;18.00;59.10;;;;;;6141763;23;20187;-82
2024/03/13 09:48:59;;;;;;;9.13;1.98;;;18.00;59.80;;;;;;6115893;23;20259;-85
2024/03/13 09:51:25;;;;;;;5.88;2.20;;;18.00;59.30;;;;;;6108991;23;20499;-85
2024/03/13 09:53:51;;;;;;;5.10;1.85;;;18.00;59.10;;;;;;6081990;23;20234;-84
2024/03/13 09:56:17;;;;;;;7.28;2.22;;;18.00;59.30;;;;;;6110739;23;20190;-85
2024/03/13 09:58:54;;;;;;;6.32;2.33;;;18.10;59.40;;;;;;6110336;23;20179;-85
2024/03/13 10:01:49;;;;;;;7.82;1.98;;;18.10;59.60;;;;;;6135670;23;20162;-84
2024/03/13 10:04:42;;;;;;;7.13;1.90;;;18.10;59.80;;;;;;6076315;23;20206;-85
2024/03/13 10:07:17;;;;;;;5.43;1.98;;;18.00;59.90;;;;;;6029902;23;20158;-86
2024/03/13 10:09:51;;;;;;;5.18;1.60;;;18.00;60.10;;;;;;6056657;23;20157;-85
2024/03/13 10:12:20;;;;;;;7.00;1.75;;;18.00;59.90;;;;;;6053850;23;20142;-85
2024/03/13 10:14:51;;;;;;;5.55;1.60;;;18.00;60.30;;;;;;6066914;23;20239;-85
2024/03/13 10:17:24;;;;;;;6.18;1.58;;;17.90;60.40;;;;;;6090944;23;20172;-85
2024/03/13 10:19:53;;;;;;;4.10;1.98;;;17.90;60.10;;;;;;6068132;23;20168;-83
2024/03/13 10:22:44;;;;;;;5.32;1.80;;;17.90;60.40;;;;;;6106140;23;20535;-82
2024/03/13 10:25:15;;;;;;;9.18;2.25;;;17.90;60.50;;;;;;6053420;23;20190;-82
2024/03/13 10:27:42;;;;;;;5.75;2.10;;;17.90;60.50;;;;;;5996825;23;20219;-83
2024/03/13 10:30:47;;;;;;;3.60;1.75;;;17.90;61.00;;;;;;5972082;24;20167;-83
2024/03/13 10:33:23;;;;;;;5.88;1.88;;;17.90;60.40;;;;;;5996474;23;20162;-83
2024/03/13 10:36:01;;;;;;;3.78;1.90;;;17.90;60.70;;;;;;5974187;23;20159;-84
2024/03/13 10:38:35;;;;;;;4.68;2.00;;;17.90;60.40;;;;;;5988395;23;20278;-88
2024/03/13 10:41:08;;;;;;;2.75;1.55;;;17.90;60.70;;;;;;5960082;24;20179;-85
2024/03/13 10:43:46;;;;;;;4.20;1.90;;;17.90;60.70;;;;;;5966171;24;20180;-84
2024/03/13 10:47:07;;;;;;;6.75;1.70;;;17.90;60.70;;;;;;5983669;24;20184;-85
2024/03/13 10:49:53;;;;;;;4.05;1.80;;;17.90;59.80;;;;;;5889257;24;20157;-82
2024/03/13 10:52:29;;;;;;;3.25;1.80;;;17.90;60.60;;;;;;5909362;24;20598;-86
2024/03/13 10:54:57;;;;;;;2.67;1.70;;;17.90;60.10;;;;;;5907279;24;20164;-84
2024/03/13 10:58:00;;;;;;;;;;;;;;;;;;;;;
2024/03/13 11:00:46;;;;;;;2.67;1.55;;;17.80;60.50;;;;;;5953692;24;20194;-84
2024/03/13 11:03:33;;;;;;;2.83;2.00;;;17.80;60.50;;;;;;5967857;24;20151;-83
2024/03/13 11:06:20;;;;;;;4.80;1.90;;;17.80;60.10;;;;;;6004541;23;20247;-84
2024/03/13 11:09:36;;;;;;;3.38;1.77;;;17.80;60.50;;;;;;5966024;24;20152;-84
2024/03/13 11:12:37;;;;;;;4.15;1.77;;;17.80;60.40;;;;;;5936435;24;20164;-83
2024/03/13 11:15:26;;;;;;;3.70;1.50;;;17.80;60.40;;;;;;5906178;24;20537;-83
2024/03/13 11:18:09;;;;;;;3.58;1.80;;;17.80;60.80;;;;;;5884496;24;20158;-84
2024/03/13 11:20:56;;;;;;;2.63;1.67;;;17.80;60.60;;;;;;5859874;24;20162;-84
2024/03/13 11:23:35;;;;;;;4.55;1.80;;;17.80;60.20;;;;;;5898977;24;20212;-84
2024/03/13 11:26:26;;;;;;;2.80;1.55;;;17.90;60.40;;;;;;5918465;24;20214;-84
2024/03/13 11:29:23;;;;;;;3.88;1.67;;;17.80;60.50;;;;;;5931578;24;20154;-84
2024/03/13 11:31:57;;;;;;;5.35;1.70;;;17.80;60.80;;;;;;5869447;24;20339;-84
2024/03/13 11:34:44;;;;;;;5.85;1.80;;;17.80;60.80;;;;;;5850513;24;20219;-84
2024/03/13 11:37:57;;;;;;;4.45;1.73;;;17.80;60.70;;;;;;5873493;24;20163;-84
2024/03/13 11:40:32;;;;;;;3.42;1.60;;;17.80;60.80;;;;;;5859126;24;20169;-84
2024/03/13 11:43:04;;;;;;;2.58;1.52;;;17.80;60.30;;;;;;5901854;24;20162;-85
2024/03/13 11:46:03;;;;;;;3.90;1.77;;;17.90;60.80;;;;;;5943448;24;20181;-87
2024/03/13 11:48:32;;;;;;;3.75;1.50;;;17.90;60.90;;;;;;5911311;24;20165;-84
2024/03/13 11:51:09;;;;;;;4.03;1.75;;;17.80;60.60;;;;;;5889158;24;20510;-84
2024/03/13 11:53:41;;;;;;;2.45;1.63;;;17.80;60.50;;;;;;5911832;24;20164;-84
2024/03/13 11:56:20;;;;;;;4.28;1.80;;;17.90;60.20;;;;;;6011650;23;20198;-83
2024/03/13 11:58:52;;;;;;;2.17;1.60;;;17.90;60.00;;;;;;6029608;23;20158;-84
2024/03/13 12:01:35;;;;;;;2.45;1.45;;;17.90;59.80;;;;;;6138892;23;20156;-83
2024/03/13 12:04:05;;;;;;;2.78;1.90;;;17.90;59.80;;;;;;6092943;23;20171;-85
2024/03/13 12:06:37;;;;;;;3.10;1.80;;;17.90;59.60;;;;;;6110710;23;20190;-85
2024/03/13 12:09:15;;;;;;;4.32;1.90;;;18.00;59.50;;;;;;6137868;23;20595;-83
2024/03/13 12:11:41;;;;;;;3.05;1.45;;;17.90;59.50;;;;;;6108145;23;20663;-82
2024/03/13 12:14:08;;;;;;;3.42;1.70;;;17.90;59.60;;;;;;6133297;23;20155;-83
2024/03/13 12:16:34;;;;;;;4.50;1.98;;;17.90;59.60;;;;;;6137214;23;20156;-82
2024/03/13 12:19:02;;;;;;;2.83;1.73;;;17.90;60.00;;;;;;6135628;23;20275;-84
2024/03/13 12:21:32;;;;;;;4.32;1.83;;;17.90;59.60;;;;;;6137129;23;20494;-84
2024/03/13 12:24:00;;;;;;;2.70;1.52;;;17.90;59.60;;;;;;6111182;23;20355;-83
2024/03/13 12:26:28;;;;;;;3.05;1.70;;;17.90;59.40;;;;;;6111466;23;20218;-85
2024/03/13 12:28:55;;;;;;;3.40;1.70;;;17.90;59.70;;;;;;6084225;23;20156;-84
2024/03/13 12:31:24;;;;;;;3.45;1.75;;;17.90;59.40;;;;;;6159269;23;20145;-83
2024/03/13 12:33:58;;;;;;;2.67;1.70;;;17.90;59.80;;;;;;6108618;23;20232;-86
2024/03/13 12:36:27;;;;;;;4.80;1.52;;;17.90;59.60;;;;;;6134307;23;20182;-83
2024/03/13 12:38:57;;;;;;;2.58;1.63;;;17.90;59.60;;;;;;6108311;23;20159;-84
2024/03/13 12:41:23;;;;;;;3.17;1.80;;;17.90;59.70;;;;;;6110212;23;20524;-83
2024/03/13 12:43:52;;;;;;;2.25;1.75;;;17.90;59.40;;;;;;6167727;23;20246;-84
2024/03/13 12:46:20;;;;;;;6.38;1.80;;;18.00;59.60;;;;;;6194111;23;20174;-82
2024/03/13 12:48:46;;;;;;;4.13;1.80;;;18.00;59.60;;;;;;6139272;23;20478;-87
2024/03/13 12:51:12;;;;;;;2.10;1.77;;;17.90;59.60;;;;;;6164775;23;20166;-85
2024/03/13 12:53:41;;;;;;;3.80;1.90;;;18.00;59.40;;;;;;6191494;23;20149;-86
2024/03/13 12:56:15;;;;;;;3.40;1.88;;;17.90;59.20;;;;;;6162410;23;20230;-85
2024/03/13 12:58:51;;;;;;;3.38;1.90;;;18.00;59.30;;;;;;6120725;23;20155;-86
2024/03/13 13:01:41;;;;;;;;;;;;;;;;;;;;;
2024/03/13 13:04:19;;;;;;;2.15;1.70;;;18.00;58.90;;;;;;6063737;23;20183;-85
2024/03/13 14:30:02;;;;;;;2.03;1.67;;;18.00;59.10;;;;;;6179902;23;20181;-82
2024/03/13 14:32:32;;;;;;;4.32;1.80;;;18.00;59.20;;;;;;6184176;23;20173;-82
2024/03/13 14:35:01;;;;;;;2.80;2.08;;;18.00;59.20;;;;;;6184251;23;20155;-83
2024/03/13 14:37:31;;;;;;;3.53;1.50;;;18.10;59.50;;;;;;6184606;23;20159;-83
2024/03/13 14:40:03;;;;;;;3.25;1.50;;;18.00;59.40;;;;;;6184460;23;20189;-83
2024/03/13 14:42:32;;;;;;;4.18;1.75;;;18.00;59.70;;;;;;6161198;23;20608;-83
2024/03/13 14:44:58;;;;;;;2.10;1.42;;;18.00;59.70;;;;;;6160612;23;20151;-83
2024/03/13 14:47:24;;;;;;;2.83;1.65;;;17.90;59.60;;;;;;6184545;23;20159;-82
2024/03/13 14:49:53;;;;;;;2.90;1.48;;;18.00;58.90;;;;;;6184767;23;20462;-82
2024/03/13 14:52:18;;;;;;;2.35;1.70;;;18.10;59.00;;;;;;6162616;23;20143;-83
2024/03/13 14:54:50;;;;;;;1.88;1.38;;;18.00;59.20;;;;;;6187923;23;20131;-83
2024/03/13 14:57:16;;;;;;;5.70;1.75;;;18.00;59.60;;;;;;6164409;23;20147;-82
2024/03/13 14:59:43;;;;;;;4.07;1.90;;;18.00;59.80;;;;;;6189184;23;20130;-82
2024/03/13 15:02:12;;;;;;;5.65;1.80;;;18.00;59.30;;;;;;6162991;23;20147;-82
2024/03/13 15:04:40;;;;;;;4.03;2.05;;;17.90;60.90;;;;;;6190209;23;20186;-82
2024/03/13 15:07:09;;;;;;;11.30;1.80;;;17.90;60.00;;;;;;6161823;23;20167;-82
2024/03/13 15:09:39;;;;;;;6.47;1.73;;;17.90;60.00;;;;;;6136719;23;20147;-82
2024/03/13 15:12:09;;;;;;;6.78;1.77;;;18.00;59.80;;;;;;6190750;23;20151;-83
2024/03/13 15:14:42;;;;;;;8.45;2.03;;;18.00;59.70;;;;;;6142720;23;20158;-83
2024/03/13 15:17:10;;;;;;;5.07;1.58;;;18.10;60.20;;;;;;6117763;23;20154;-82
2024/03/13 15:19:38;;;;;;;4.47;1.90;;;18.00;59.70;;;;;;6190305;23;20238;-82
2024/03/13 15:22:06;;;;;;;3.35;1.40;;;18.10;59.90;;;;;;6188152;23;20135;-82
2024/03/13 15:24:38;;;;;;;4.90;1.67;;;18.10;60.10;;;;;;6161351;23;20158;-82
2024/03/13 15:27:06;;;;;;;4.40;1.52;;;18.10;60.00;;;;;;6160014;23;20186;-81
2024/03/13 15:29:39;;;;;;;8.55;2.20;;;18.10;59.90;;;;;;6161222;23;20151;-82
2024/03/13 15:32:07;;;;;;;5.95;1.83;;;18.10;59.80;;;;;;6163593;23;20213;-82
2024/03/13 15:34:40;;;;;;;6.47;1.90;;;18.10;60.00;;;;;;6185919;23;20154;-82
2024/03/13 15:37:06;;;;;;;7.80;2.25;;;18.10;59.50;;;;;;6184142;23;20157;-82
2024/03/13 15:39:36;;;;;;;8.05;1.75;;;18.10;59.60;;;;;;6185141;23;20514;-82
2024/03/13 15:42:01;;;;;;;3.08;1.80;;;18.10;59.90;;;;;;6159180;23;20182;-82